• Join FlightAware (Why Join?)
  • Login
  • US Flag 
10:43PM EST


 

Airport Tracker/Info


-or-


 

Live Flight TrackerFlight Track Log ✈ EGF2819 ✈ 26-Jul-2013 ✈ KMGM - KDFW

Flight Track Log - Related Links

Times and Time Zones

All times are in EDT time to prevent confusion due to time zone crossing. See the EGF2819 flight status page for this flight to view local times or setup timezone preferences in your user account.

Time Position Orientation Groundspeed Altitude Reporting Facility
EDT Latitude Longitude Course Direction KTS MPH feet Rate Location/Type
07:42AM 32.3005 -86.7215 278° West  Level FlightAware Approximate
07:42AM 32.3092 -86.5800 275° West 264 304 5,000  Level Atlanta Center
07:43AM 32.3130 -86.8333 278° West  Level FlightAware Approximate
07:43AM 32.3114 -86.6683 272° West 264 304 7,400  Level Atlanta Center
07:44AM 32.3167 -86.9458 270° West  Level FlightAware Approximate
07:44AM 32.3158 -86.7569 273° West 264 304 9,600  Level Atlanta Center
07:45AM 32.3167 -87.0586 270° West  Level FlightAware Approximate
07:45AM 32.3200 -86.8481 273° West 276 318 11,200  Level Atlanta Center
07:46AM 32.3192 -87.1712 275° West  Level FlightAware Approximate
07:46AM 32.3239 -86.9539 273° West 302 348 12,400  Level Atlanta Center
07:47AM 32.3268 -87.2837 275° West  Level FlightAware Approximate
07:47AM 32.3275 -87.0622 272° West 324 373 14,100  Level Atlanta Center
07:48AM 32.3308 -87.1706 272° West 330 380 15,200 1,140 Climbing Atlanta Center
07:49AM 32.3364 -87.2836 273° West 335 386 16,400 1,260 Climbing Atlanta Center
07:50AM 32.3433 -87.4119 274° West 348 400 17,800 1,440 Climbing Atlanta Center
07:51AM 32.3444 -87.5200 271° West 348 400 19,300 1,500 Climbing Atlanta Center
07:52AM 32.3497 -87.6358 273° West 348 400 20,800 1,140 Climbing Atlanta Center
07:54AM 32.3542 -87.8464 271° West 348 400 22,800 960 Climbing Memphis Center
07:55AM 32.3586 -87.9619 273° West 348 400 23,800 960 Climbing Memphis Center
07:56AM 32.3631 -88.0800 273° West 348 400 24,800 840 Climbing Memphis Center
07:57AM 32.3650 -88.2003 271° West 360 414 25,500 840 Climbing Memphis Center
07:58AM 32.3672 -88.3281 271° West 372 428 26,500 900 Climbing Memphis Center
07:59AM 32.3714 -88.4536 272° West 383 441 27,400 900 Climbing Memphis Center
08:00AM 32.3753 -88.5764 272° West 383 441 28,400 960 Climbing Memphis Center
08:01AM 32.3789 -88.7019 272° West 383 441 29,400 780 Climbing Memphis Center
08:02AM 32.3828 -88.8297 272° West 383 441 30,000 300 Climbing Memphis Center
08:03AM 32.3864 -88.9625 272° West 393 452 30,000 420 Level Memphis Center
08:04AM 32.3942 -89.0953 274° West 404 465 30,900 720 Climbing Memphis Center
08:05AM 32.4036 -89.2303 275° West 404 465 31,500 480 Climbing Memphis Center
08:06AM 32.4092 -89.3656 273° West 409 471 31,900 240 Climbing Memphis Center
08:07AM 32.4142 -89.4986 273° West 409 471 32,000  Climbing Memphis Center
08:08AM 32.4214 -89.6486 273° West 414 476 32,000  Level Memphis Center
08:09AM 32.4283 -89.7667 274° West 414 476 32,000  Level Memphis Center
08:10AM 32.4353 -89.9019 274° West 414 476 32,000  Level Memphis Center
08:11AM 32.4397 -90.0347 272° West 414 476 32,000  Level Memphis Center
08:12AM 32.4464 -90.1703 273° West 414 476 32,000 -360 Level Memphis Center
08:13AM 32.4528 -90.3056 273° West 414 476 31,300 -720 Descending Memphis Center
08:14AM 32.4569 -90.4433 272° West 419 482 30,600 -600 Descending Memphis Center
08:15AM 32.4650 -90.5814 274° West 419 482 30,100 -300 Descending Memphis Center
08:16AM 32.4689 -90.7242 272° West 419 482 30,000 -60 Descending Memphis Center
08:17AM 32.4747 -90.8572 273° West 414 476 30,000  Level Memphis Center
08:18AM 32.4803 -90.9903 273° West 409 471 30,000  Level Memphis Center
08:19AM 32.4858 -91.1233 273° West 403 464 30,000  Level Memphis Center
08:20AM 32.4892 -91.2611 272° West 403 464 30,000  Level Memphis Center
08:22AM 32.5019 -91.5342 273° West 429 494 30,000  Level Fort Worth Center
08:23AM 32.5083 -91.6767 273° West 434 499 30,000  Level Fort Worth Center
08:24AM 32.5128 -91.8217 272° West 440 506 30,000  Level Fort Worth Center
08:25AM 32.5150 -91.9667 271° West 440 506 30,000  Level Fort Worth Center
08:26AM 32.5150 -92.1119 270° West 440 506 30,000  Level Fort Worth Center
08:27AM 32.5042 -92.2531 265° West 440 506 30,000  Level Fort Worth Center
08:28AM 32.4953 -92.3964 266° West 445 512 30,000  Level Fort Worth Center
08:29AM 32.4881 -92.5247 266° West 436 502 30,000  Level Fort Worth Center
08:30AM 32.4767 -92.6683 265° West 428 493 30,000  Level Fort Worth Center
08:31AM 32.4653 -92.8117 265° West 428 493 30,000  Level Fort Worth Center
08:32AM 32.4528 -92.9281 263° West 434 499 30,000  Level Fort Worth Center
08:33AM 32.4436 -93.0833 266° West 439 505 30,000  Level Fort Worth Center
08:34AM 32.4297 -93.2219 263° West 439 505 30,000  Level Fort Worth Center
08:35AM 32.4175 -93.3653 264° West 439 505 30,000  Level Fort Worth Center
08:36AM 32.4075 -93.5058 265° West 444 511 30,000  Level Fort Worth Center
08:37AM 32.4014 -93.6489 267° West 444 511 30,000  Level Fort Worth Center
08:38AM 32.4033 -93.7892 271° West 444 511 30,000  Level Fort Worth Center
08:39AM 32.4053 -93.9292 271° West 438 504 30,000  Level Fort Worth Center
08:40AM 32.4092 -94.0692 272° West 433 498 30,000  Level Fort Worth Center
08:41AM 32.4106 -94.2094 271° West 433 498 30,000  Level Fort Worth Center
08:42AM 32.4100 -94.3547 270° West 433 498 30,000  Level Fort Worth Center
08:43AM 32.4133 -94.4947 272° West 433 498 30,000  Level Fort Worth Center
08:44AM 32.4125 -94.6375 270° West 438 504 30,000  Level Fort Worth Center
08:45AM 32.3694 -94.7742 250° West 433 498 30,000 -480 Level Fort Worth Center
08:46AM 32.3072 -94.8964 239° Southwest 438 504 29,100 -960 Descending Fort Worth Center
08:47AM 32.2556 -95.0281 245° Southwest 433 498 28,100 -1,020 Descending Fort Worth Center
08:48AM 32.1994 -95.1522 242° Southwest 438 504 27,100 -600 Descending Fort Worth Center
08:49AM 32.1156 -95.2597 227° Southwest 438 504 27,000 -300 Descending Fort Worth Center
08:50AM 32.0211 -95.3528 220° Southwest 443 510 26,500 -840 Descending Fort Worth Center
08:51AM 31.9414 -95.4547 227° Southwest 437 503 25,400 -1,080 Descending Fort Worth Center
08:52AM 31.9267 -95.5850 262° West 395 455 24,400 -720 Descending Fort Worth Center
08:53AM 31.9722 -95.7017 295° West 368 423 24,000 -240 Descending Fort Worth Center
08:54AM 32.0175 -95.8158 295° West 373 429 24,000 -480 Level Fort Worth Center
08:55AM 32.0669 -95.9303 297° West 387 445 23,100 -1,020 Descending Fort Worth Center
08:56AM 32.1139 -96.0375 297° West 387 445 22,000 -1,080 Descending Fort Worth Center
08:57AM 32.1569 -96.1497 294° West 382 440 21,000 -1,080 Descending Fort Worth Center
08:58AM 32.2081 -96.2519 301° West 375 432 19,900 -1,140 Descending Fort Worth Center
08:59AM 32.2839 -96.3322 318° Northwest 363 418 18,800 -1,560 Descending Fort Worth Center
09:00AM 32.3619 -96.4247 315° West 363 418 16,800 -2,280 Descending Fort Worth Center
09:01AM 32.4231 -96.5003 314° West 363 418 14,300 -2,580 Descending Fort Worth Center
09:02AM 32.4967 -96.5883 315° West 347 399 11,700 -1,680 Descending Fort Worth Center
09:03AM 32.5533 -96.6542 316° Northwest 329 379 11,000 -360 Descending Fort Worth Center
09:04AM 32.6164 -96.7303 315° West 306 352 11,000  Level Fort Worth Center
09:04AM 32.6500 -96.7667 318° Northwest 297 342 11,000 -60 Level Dallas / Fort Worth TRACON
09:05AM 32.7167 -96.8333 320° Northwest 249 287 10,900  Descending Dallas / Fort Worth TRACON
09:06AM 32.7667 -96.9000 312° West 253 291 11,000 -600 Climbing Dallas / Fort Worth TRACON
09:07AM 32.8333 -96.9000 360° North 250 288 9,900 -1,380 Descending Dallas / Fort Worth TRACON
09:08AM 32.9000 -96.9000 360° North 253 291 8,300 -1,500 Descending Dallas / Fort Worth TRACON
09:09AM 32.9667 -96.9000 360° North 251 289 6,800 -1,500 Descending Dallas / Fort Worth TRACON
09:10AM 33.0500 -96.9000 360° North 254 292 5,300 -1,140 Descending Dallas / Fort Worth TRACON
09:11AM 33.1167 -96.9167 348° North 250 288 4,600 -720 Descending Dallas / Fort Worth TRACON
09:12AM 33.1167 -96.9833 270° West 189 217 4,000 -660 Descending Dallas / Fort Worth TRACON